sensor_id;sensor_type;location;lat;lon;timestamp;temperature;humidity
19090;DHT22;9677;50.656;13.064;2023-04-25T03:02:03;11.60;50.50
19090;DHT22;9677;50.656;13.064;2023-04-25T03:07:51;11.60;50.60
19090;DHT22;9677;50.656;13.064;2023-04-25T03:36:27;11.50;50.90
19090;DHT22;9677;50.656;13.064;2023-04-25T03:46:18;11.60;51.20
19090;DHT22;9677;50.656;13.064;2023-04-25T04:05:30;11.60;51.10
19090;DHT22;9677;50.656;13.064;2023-04-25T04:21:39;11.70;51.40
19090;DHT22;9677;50.656;13.064;2023-04-25T04:33:43;11.70;51.30
19090;DHT22;9677;50.656;13.064;2023-04-25T04:36:42;11.70;50.60
19090;DHT22;9677;50.656;13.064;2023-04-25T04:42:38;11.70;51.20
19090;DHT22;9677;50.656;13.064;2023-04-25T04:49:00;11.70;51.30
19090;DHT22;9677;50.656;13.064;2023-04-25T04:57:50;11.70;51.30
19090;DHT22;9677;50.656;13.064;2023-04-25T05:10:42;11.80;51.50
19090;DHT22;9677;50.656;13.064;2023-04-25T05:13:29;12.90;51.50
19090;DHT22;9677;50.656;13.064;2023-04-25T05:16:18;11.60;51.20
19090;DHT22;9677;50.656;13.064;2023-04-25T05:18:55;11.90;51.50
19090;DHT22;9677;50.656;13.064;2023-04-25T05:22:07;11.90;51.50
19090;DHT22;9677;50.656;13.064;2023-04-25T05:25:22;11.90;51.50
19090;DHT22;9677;50.656;13.064;2023-04-25T05:28:03;12.00;51.60
19090;DHT22;9677;50.656;13.064;2023-04-25T05:34:45;12.00;51.60
19090;DHT22;9677;50.656;13.064;2023-04-25T05:37:45;12.10;51.50
19090;DHT22;9677;50.656;13.064;2023-04-25T05:40:20;12.10;51.20
19090;DHT22;9677;50.656;13.064;2023-04-25T05:46:17;12.10;51.60
19090;DHT22;9677;50.656;13.064;2023-04-25T05:49:25;12.80;51.30
19090;DHT22;9677;50.656;13.064;2023-04-25T05:52:03;12.20;51.50
19090;DHT22;9677;50.656;13.064;2023-04-25T05:54:55;12.20;51.50
19090;DHT22;9677;50.656;13.064;2023-04-25T05:57:26;12.20;51.40
19090;DHT22;9677;50.656;13.064;2023-04-25T05:59:56;12.20;51.30
19090;DHT22;9677;50.656;13.064;2023-04-25T06:02:39;12.20;51.20
19090;DHT22;9677;50.656;13.064;2023-04-25T06:05:10;12.30;51.20
19090;DHT22;9677;50.656;13.064;2023-04-25T06:07:40;12.30;51.10
19090;DHT22;9677;50.656;13.064;2023-04-25T06:10:09;12.20;51.00
19090;DHT22;9677;50.656;13.064;2023-04-25T06:12:37;12.20;50.90
19090;DHT22;9677;50.656;13.064;2023-04-25T06:15:07;12.20;50.80
19090;DHT22;9677;50.656;13.064;2023-04-25T06:17:55;12.20;50.90
19090;DHT22;9677;50.656;13.064;2023-04-25T06:20:23;12.20;50.90
19090;DHT22;9677;50.656;13.064;2023-04-25T06:22:56;12.20;50.90
19090;DHT22;9677;50.656;13.064;2023-04-25T06:25:33;12.30;51.00
19090;DHT22;9677;50.656;13.064;2023-04-25T06:28:01;12.30;51.50
19090;DHT22;9677;50.656;13.064;2023-04-25T06:30:30;12.30;50.90
19090;DHT22;9677;50.656;13.064;2023-04-25T06:33:04;12.50;51.10
19090;DHT22;9677;50.656;13.064;2023-04-25T06:35:34;12.30;51.00
19090;DHT22;9677;50.656;13.064;2023-04-25T06:38:04;12.30;51.00
19090;DHT22;9677;50.656;13.064;2023-04-25T06:40:33;12.30;51.00
19090;DHT22;9677;50.656;13.064;2023-04-25T06:43:01;12.40;51.00
19090;DHT22;9677;50.656;13.064;2023-04-25T06:45:45;12.40;50.90
19090;DHT22;9677;50.656;13.064;2023-04-25T06:48:15;12.40;50.90
19090;DHT22;9677;50.656;13.064;2023-04-25T06:50:43;12.40;50.90
19090;DHT22;9677;50.656;13.064;2023-04-25T06:53:13;12.40;50.80
19090;DHT22;9677;50.656;13.064;2023-04-25T06:55:45;12.40;50.80
19090;DHT22;9677;50.656;13.064;2023-04-25T06:58:18;12.40;50.80
19090;DHT22;9677;50.656;13.064;2023-04-25T07:01:06;12.40;50.80
19090;DHT22;9677;50.656;13.064;2023-04-25T07:03:35;12.40;50.80
19090;DHT22;9677;50.656;13.064;2023-04-25T07:06:11;12.40;50.70
19090;DHT22;9677;50.656;13.064;2023-04-25T07:08:41;12.70;50.90
19090;DHT22;9677;50.656;13.064;2023-04-25T07:11:09;12.40;50.70
19090;DHT22;9677;50.656;13.064;2023-04-25T07:13:39;12.40;50.70
19090;DHT22;9677;50.656;13.064;2023-04-25T07:16:07;12.30;50.60
19090;DHT22;9677;50.656;13.064;2023-04-25T07:18:36;12.40;50.60
19090;DHT22;9677;50.656;13.064;2023-04-25T07:21:04;12.30;50.50
19090;DHT22;9677;50.656;13.064;2023-04-25T07:23:34;12.20;50.50
19090;DHT22;9677;50.656;13.064;2023-04-25T07:26:10;12.10;51.10
19090;DHT22;9677;50.656;13.064;2023-04-25T07:28:52;12.10;50.50
19090;DHT22;9677;50.656;13.064;2023-04-25T07:31:22;12.60;51.30
19090;DHT22;9677;50.656;13.064;2023-04-25T07:33:51;12.00;50.50
19090;DHT22;9677;50.656;13.064;2023-04-25T07:36:19;11.90;50.40
19090;DHT22;9677;50.656;13.064;2023-04-25T07:38:48;11.80;50.40
19090;DHT22;9677;50.656;13.064;2023-04-25T07:41:18;11.80;50.40
19090;DHT22;9677;50.656;13.064;2023-04-25T07:43:48;11.70;50.40
19090;DHT22;9677;50.656;13.064;2023-04-25T07:46:16;11.70;50.60
19090;DHT22;9677;50.656;13.064;2023-04-25T07:48:45;11.60;50.70
19090;DHT22;9677;50.656;13.064;2023-04-25T07:51:13;11.60;51.00
19090;DHT22;9677;50.656;13.064;2023-04-25T07:53:42;11.50;51.00
19090;DHT22;9677;50.656;13.064;2023-04-25T07:56:14;11.50;51.20
19090;DHT22;9677;50.656;13.064;2023-04-25T07:58:46;12.40;51.80
19090;DHT22;9677;50.656;13.064;2023-04-25T08:01:16;11.50;51.70
19090;DHT22;9677;50.656;13.064;2023-04-25T08:04:03;11.60;52.00
19090;DHT22;9677;50.656;13.064;2023-04-25T08:06:46;11.60;52.20
19090;DHT22;9677;50.656;13.064;2023-04-25T08:09:19;11.70;52.20
19090;DHT22;9677;50.656;13.064;2023-04-25T08:11:48;11.80;52.40
19090;DHT22;9677;50.656;13.064;2023-04-25T08:14:22;11.90;52.40
19090;DHT22;9677;50.656;13.064;2023-04-25T08:16:50;12.00;52.30
19090;DHT22;9677;50.656;13.064;2023-04-25T08:19:19;12.10;52.20
19090;DHT22;9677;50.656;13.064;2023-04-25T08:21:48;12.20;52.20
19090;DHT22;9677;50.656;13.064;2023-04-25T08:24:24;12.20;52.10
19090;DHT22;9677;50.656;13.064;2023-04-25T08:26:53;12.30;52.10
19090;DHT22;9677;50.656;13.064;2023-04-25T08:29:28;12.40;52.00
19090;DHT22;9677;50.656;13.064;2023-04-25T08:31:56;13.30;52.20
19090;DHT22;9677;50.656;13.064;2023-04-25T08:34:25;12.50;51.70
19090;DHT22;9677;50.656;13.064;2023-04-25T08:36:54;12.50;51.80
19090;DHT22;9677;50.656;13.064;2023-04-25T08:39:43;12.60;51.80
19090;DHT22;9677;50.656;13.064;2023-04-25T08:42:23;12.60;51.80
19090;DHT22;9677;50.656;13.064;2023-04-25T08:44:55;12.70;51.50
19090;DHT22;9677;50.656;13.064;2023-04-25T08:47:30;12.70;51.40
19090;DHT22;9677;50.656;13.064;2023-04-25T08:50:03;12.70;51.20
19090;DHT22;9677;50.656;13.064;2023-04-25T08:52:43;12.80;51.20
19090;DHT22;9677;50.656;13.064;2023-04-25T08:55:14;12.80;51.30
19090;DHT22;9677;50.656;13.064;2023-04-25T08:57:43;12.80;51.20
19090;DHT22;9677;50.656;13.064;2023-04-25T09:00:14;12.90;51.40
19090;DHT22;9677;50.656;13.064;2023-04-25T09:02:46;12.90;51.50
19090;DHT22;9677;50.656;13.064;2023-04-25T09:05:15;13.00;51.40
19090;DHT22;9677;50.656;13.064;2023-04-25T09:07:47;13.00;51.40
19090;DHT22;9677;50.656;13.064;2023-04-25T09:10:17;13.40;51.50
19090;DHT22;9677;50.656;13.064;2023-04-25T09:13:02;13.30;51.40
19090;DHT22;9677;50.656;13.064;2023-04-25T09:15:48;13.20;51.50
19090;DHT22;9677;50.656;13.064;2023-04-25T09:18:34;13.30;51.30
19090;DHT22;9677;50.656;13.064;2023-04-25T09:21:07;13.40;51.40
19090;DHT22;9677;50.656;13.064;2023-04-25T09:23:44;13.40;51.00
19090;DHT22;9677;50.656;13.064;2023-04-25T09:26:15;13.50;50.80
19090;DHT22;9677;50.656;13.064;2023-04-25T09:28:45;13.50;50.50
19090;DHT22;9677;50.656;13.064;2023-04-25T09:31:23;13.70;50.50
19090;DHT22;9677;50.656;13.064;2023-04-25T09:33:59;13.70;50.50
19090;DHT22;9677;50.656;13.064;2023-04-25T09:36:35;13.40;50.40
19090;DHT22;9677;50.656;13.064;2023-04-25T09:39:19;13.50;50.30
19090;DHT22;9677;50.656;13.064;2023-04-25T09:41:59;13.50;50.10
19090;DHT22;9677;50.656;13.064;2023-04-25T09:44:27;13.40;49.90
19090;DHT22;9677;50.656;13.064;2023-04-25T09:46:58;13.40;49.90
19090;DHT22;9677;50.656;13.064;2023-04-25T09:49:28;13.30;49.90
19090;DHT22;9677;50.656;13.064;2023-04-25T09:52:03;13.30;50.00
19090;DHT22;9677;50.656;13.064;2023-04-25T09:54:39;13.30;50.20
19090;DHT22;9677;50.656;13.064;2023-04-25T09:57:16;13.50;50.40
19090;DHT22;9677;50.656;13.064;2023-04-25T09:59:47;13.30;50.50
19090;DHT22;9677;50.656;13.064;2023-04-25T10:02:19;13.30;50.60
19090;DHT22;9677;50.656;13.064;2023-04-25T10:04:53;13.30;50.50
19090;DHT22;9677;50.656;13.064;2023-04-25T10:07:30;13.40;50.60
19090;DHT22;9677;50.656;13.064;2023-04-25T10:10:01;13.40;50.40
19090;DHT22;9677;50.656;13.064;2023-04-25T10:12:31;13.40;50.20
19090;DHT22;9677;50.656;13.064;2023-04-25T10:15:01;13.40;50.10
19090;DHT22;9677;50.656;13.064;2023-04-25T10:17:33;13.40;50.10
19090;DHT22;9677;50.656;13.064;2023-04-25T10:20:02;13.40;50.20
19090;DHT22;9677;50.656;13.064;2023-04-25T10:22:36;13.50;50.30
19090;DHT22;9677;50.656;13.064;2023-04-25T10:25:06;13.50;50.30
19090;DHT22;9677;50.656;13.064;2023-04-25T10:27:36;13.50;50.20
19090;DHT22;9677;50.656;13.064;2023-04-25T10:30:07;13.50;50.10
19090;DHT22;9677;50.656;13.064;2023-04-25T10:32:39;13.50;50.00
19090;DHT22;9677;50.656;13.064;2023-04-25T10:35:14;13.50;49.90
19090;DHT22;9677;50.656;13.064;2023-04-25T10:37:57;13.50;49.80
19090;DHT22;9677;50.656;13.064;2023-04-25T10:40:26;13.50;49.90
19090;DHT22;9677;50.656;13.064;2023-04-25T10:42:55;13.50;50.00
19090;DHT22;9677;50.656;13.064;2023-04-25T10:45:23;13.50;50.20
19090;DHT22;9677;50.656;13.064;2023-04-25T10:47:54;13.50;50.20
19090;DHT22;9677;50.656;13.064;2023-04-25T10:50:37;13.60;50.30
19090;DHT22;9677;50.656;13.064;2023-04-25T10:53:14;13.60;50.10
19090;DHT22;9677;50.656;13.064;2023-04-25T10:55:49;13.70;50.00
19090;DHT22;9677;50.656;13.064;2023-04-25T10:58:22;13.60;50.00
19090;DHT22;9677;50.656;13.064;2023-04-25T11:00:50;13.70;50.00
19090;DHT22;9677;50.656;13.064;2023-04-25T11:03:25;13.70;50.00
19090;DHT22;9677;50.656;13.064;2023-04-25T11:05:54;13.80;50.00
19090;DHT22;9677;50.656;13.064;2023-04-25T11:08:48;13.80;50.00
19090;DHT22;9677;50.656;13.064;2023-04-25T11:11:18;13.80;50.00
19090;DHT22;9677;50.656;13.064;2023-04-25T11:13:48;13.90;49.90
19090;DHT22;9677;50.656;13.064;2023-04-25T11:16:17;13.90;49.80
19090;DHT22;9677;50.656;13.064;2023-04-25T11:18:57;13.90;49.60
19090;DHT22;9677;50.656;13.064;2023-04-25T11:21:26;14.10;49.60
19090;DHT22;9677;50.656;13.064;2023-04-25T11:23:56;14.10;49.50
19090;DHT22;9677;50.656;13.064;2023-04-25T11:26:24;13.90;49.50
19090;DHT22;9677;50.656;13.064;2023-04-25T11:28:57;14.20;49.60
19090;DHT22;9677;50.656;13.064;2023-04-25T11:31:27;13.90;49.40
19090;DHT22;9677;50.656;13.064;2023-04-25T11:33:58;13.90;49.40
19090;DHT22;9677;50.656;13.064;2023-04-25T11:36:27;14.10;49.60
19090;DHT22;9677;50.656;13.064;2023-04-25T11:38:55;13.90;49.60
19090;DHT22;9677;50.656;13.064;2023-04-25T11:41:25;13.80;49.50
19090;DHT22;9677;50.656;13.064;2023-04-25T11:43:54;13.80;49.40
19090;DHT22;9677;50.656;13.064;2023-04-25T11:46:22;13.80;49.40
19090;DHT22;9677;50.656;13.064;2023-04-25T11:48:51;13.70;49.40
19090;DHT22;9677;50.656;13.064;2023-04-25T11:51:21;13.70;49.50
19090;DHT22;9677;50.656;13.064;2023-04-25T11:53:50;13.70;49.70
19090;DHT22;9677;50.656;13.064;2023-04-25T11:56:18;13.70;49.90
19090;DHT22;9677;50.656;13.064;2023-04-25T11:58:55;13.70;50.00
19090;DHT22;9677;50.656;13.064;2023-04-25T12:01:29;13.70;50.00
19090;DHT22;9677;50.656;13.064;2023-04-25T12:04:11;13.70;50.00
19090;DHT22;9677;50.656;13.064;2023-04-25T12:06:43;13.70;50.00
19090;DHT22;9677;50.656;13.064;2023-04-25T12:09:15;13.70;50.00
19090;DHT22;9677;50.656;13.064;2023-04-25T12:11:46;13.90;50.00
19090;DHT22;9677;50.656;13.064;2023-04-25T12:14:21;13.70;49.80
19090;DHT22;9677;50.656;13.064;2023-04-25T12:16:51;13.60;49.70
19090;DHT22;9677;50.656;13.064;2023-04-25T12:19:20;13.60;49.70
19090;DHT22;9677;50.656;13.064;2023-04-25T12:21:50;13.70;49.80
19090;DHT22;9677;50.656;13.064;2023-04-25T12:24:23;13.60;49.80
19090;DHT22;9677;50.656;13.064;2023-04-25T12:26:54;13.60;49.90
19090;DHT22;9677;50.656;13.064;2023-04-25T12:29:29;13.50;49.80
19090;DHT22;9677;50.656;13.064;2023-04-25T12:32:14;13.50;49.90
19090;DHT22;9677;50.656;13.064;2023-04-25T12:34:43;13.40;49.90
19090;DHT22;9677;50.656;13.064;2023-04-25T12:37:13;13.40;50.10
19090;DHT22;9677;50.656;13.064;2023-04-25T12:39:41;13.30;50.20
19090;DHT22;9677;50.656;13.064;2023-04-25T12:42:10;13.30;50.20
19090;DHT22;9677;50.656;13.064;2023-04-25T12:44:39;13.30;50.40
19090;DHT22;9677;50.656;13.064;2023-04-25T12:47:08;13.30;50.40
19090;DHT22;9677;50.656;13.064;2023-04-25T12:49:37;13.30;50.40
19090;DHT22;9677;50.656;13.064;2023-04-25T12:52:05;13.20;50.40
19090;DHT22;9677;50.656;13.064;2023-04-25T12:54:35;13.20;50.30
19090;DHT22;9677;50.656;13.064;2023-04-25T12:57:03;13.20;50.20
19090;DHT22;9677;50.656;13.064;2023-04-25T12:59:32;13.20;50.20
19090;DHT22;9677;50.656;13.064;2023-04-25T13:02:00;13.50;50.40
19090;DHT22;9677;50.656;13.064;2023-04-25T13:04:29;13.30;50.30
19090;DHT22;9677;50.656;13.064;2023-04-25T13:06:58;13.00;50.20
19090;DHT22;9677;50.656;13.064;2023-04-25T13:09:26;13.00;50.30
19090;DHT22;9677;50.656;13.064;2023-04-25T13:11:56;12.90;50.30
19090;DHT22;9677;50.656;13.064;2023-04-25T13:14:25;12.90;50.30
19090;DHT22;9677;50.656;13.064;2023-04-25T13:16:54;12.80;50.30
19090;DHT22;9677;50.656;13.064;2023-04-25T13:19:23;12.80;50.40
19090;DHT22;9677;50.656;13.064;2023-04-25T13:21:52;12.80;50.40
19090;DHT22;9677;50.656;13.064;2023-04-25T13:24:20;12.70;50.30
19090;DHT22;9677;50.656;13.064;2023-04-25T13:26:49;12.60;50.40
19090;DHT22;9677;50.656;13.064;2023-04-25T13:29:19;13.60;50.90
19090;DHT22;9677;50.656;13.064;2023-04-25T13:31:47;12.50;50.50
19090;DHT22;9677;50.656;13.064;2023-04-25T13:34:15;12.50;50.70
19090;DHT22;9677;50.656;13.064;2023-04-25T13:36:44;12.40;50.90
19090;DHT22;9677;50.656;13.064;2023-04-25T13:39:12;12.40;51.00
19090;DHT22;9677;50.656;13.064;2023-04-25T13:41:41;12.30;51.10
19090;DHT22;9677;50.656;13.064;2023-04-25T13:44:10;12.30;51.20
19090;DHT22;9677;50.656;13.064;2023-04-25T13:46:39;12.40;51.40
19090;DHT22;9677;50.656;13.064;2023-04-25T13:49:13;12.40;51.30
19090;DHT22;9677;50.656;13.064;2023-04-25T13:51:42;12.70;51.60
19090;DHT22;9677;50.656;13.064;2023-04-25T13:54:10;12.30;51.30
19090;DHT22;9677;50.656;13.064;2023-04-25T13:56:39;12.40;51.40
19090;DHT22;9677;50.656;13.064;2023-04-25T13:59:09;12.40;51.40
19090;DHT22;9677;50.656;13.064;2023-04-25T14:01:39;12.30;51.40
19090;DHT22;9677;50.656;13.064;2023-04-25T14:04:08;12.30;51.50
19090;DHT22;9677;50.656;13.064;2023-04-25T14:06:36;12.30;51.50
19090;DHT22;9677;50.656;13.064;2023-04-25T14:09:05;12.70;51.80
19090;DHT22;9677;50.656;13.064;2023-04-25T14:11:34;12.30;51.60
19090;DHT22;9677;50.656;13.064;2023-04-25T14:14:02;12.30;51.80
19090;DHT22;9677;50.656;13.064;2023-04-25T14:16:31;12.30;51.80
19090;DHT22;9677;50.656;13.064;2023-04-25T14:19:01;12.30;51.90
19090;DHT22;9677;50.656;13.064;2023-04-25T14:21:30;12.40;51.90
19090;DHT22;9677;50.656;13.064;2023-04-25T14:23:59;12.40;52.00
19090;DHT22;9677;50.656;13.064;2023-04-25T14:26:28;12.40;51.90
19090;DHT22;9677;50.656;13.064;2023-04-25T14:28:57;12.40;51.90
19090;DHT22;9677;50.656;13.064;2023-04-25T14:31:25;12.50;52.00
19090;DHT22;9677;50.656;13.064;2023-04-25T14:33:54;12.50;51.90
19090;DHT22;9677;50.656;13.064;2023-04-25T14:36:28;12.50;51.90
19090;DHT22;9677;50.656;13.064;2023-04-25T14:38:57;12.50;52.00
19090;DHT22;9677;50.656;13.064;2023-04-25T14:41:26;12.60;52.10
19090;DHT22;9677;50.656;13.064;2023-04-25T14:43:55;12.60;52.10
19090;DHT22;9677;50.656;13.064;2023-04-25T14:46:23;12.60;52.00
19090;DHT22;9677;50.656;13.064;2023-04-25T14:48:52;12.70;52.00
19090;DHT22;9677;50.656;13.064;2023-04-25T14:51:22;13.00;52.00
19090;DHT22;9677;50.656;13.064;2023-04-25T14:53:52;12.70;51.80
19090;DHT22;9677;50.656;13.064;2023-04-25T14:56:21;12.80;51.90
19090;DHT22;9677;50.656;13.064;2023-04-25T14:58:49;12.80;51.90
19090;DHT22;9677;50.656;13.064;2023-04-25T15:01:17;12.80;51.90
19090;DHT22;9677;50.656;13.064;2023-04-25T15:03:47;12.90;51.70
19090;DHT22;9677;50.656;13.064;2023-04-25T15:06:17;12.90;51.70
19090;DHT22;9677;50.656;13.064;2023-04-25T15:08:45;12.90;51.60
19090;DHT22;9677;50.656;13.064;2023-04-25T15:11:15;12.90;51.60
19090;DHT22;9677;50.656;13.064;2023-04-25T15:13:43;13.00;51.50
19090;DHT22;9677;50.656;13.064;2023-04-25T15:16:12;13.10;51.50
19090;DHT22;9677;50.656;13.064;2023-04-25T15:18:40;12.90;51.10
19090;DHT22;9677;50.656;13.064;2023-04-25T15:21:08;12.90;51.00
19090;DHT22;9677;50.656;13.064;2023-04-25T15:23:37;12.80;50.90
19090;DHT22;9677;50.656;13.064;2023-04-25T15:26:06;13.20;51.00
19090;DHT22;9677;50.656;13.064;2023-04-25T15:28:35;12.70;50.70
19090;DHT22;9677;50.656;13.064;2023-04-25T15:31:04;12.90;51.00
19090;DHT22;9677;50.656;13.064;2023-04-25T15:33:33;12.50;51.00
19090;DHT22;9677;50.656;13.064;2023-04-25T15:36:01;12.40;51.00
19090;DHT22;9677;50.656;13.064;2023-04-25T15:38:30;12.30;51.10
19090;DHT22;9677;50.656;13.064;2023-04-25T15:40:58;12.20;51.20
19090;DHT22;9677;50.656;13.064;2023-04-25T15:43:27;12.20;51.30
19090;DHT22;9677;50.656;13.064;2023-04-25T15:45:56;12.10;51.40
19090;DHT22;9677;50.656;13.064;2023-04-25T15:48:25;12.10;51.40
19090;DHT22;9677;50.656;13.064;2023-04-25T15:50:53;12.00;51.50
19090;DHT22;9677;50.656;13.064;2023-04-25T15:53:22;12.00;51.70
19090;DHT22;9677;50.656;13.064;2023-04-25T15:55:50;11.90;51.80
19090;DHT22;9677;50.656;13.064;2023-04-25T15:58:18;11.90;51.90
19090;DHT22;9677;50.656;13.064;2023-04-25T16:00:47;12.10;52.00
19090;DHT22;9677;50.656;13.064;2023-04-25T16:03:18;11.90;51.90
19090;DHT22;9677;50.656;13.064;2023-04-25T16:05:48;11.90;52.10
19090;DHT22;9677;50.656;13.064;2023-04-25T16:08:16;11.90;52.20
19090;DHT22;9677;50.656;13.064;2023-04-25T16:10:45;11.90;52.40
19090;DHT22;9677;50.656;13.064;2023-04-25T16:13:13;11.90;52.60
19090;DHT22;9677;50.656;13.064;2023-04-25T16:15:41;12.00;52.70
19090;DHT22;9677;50.656;13.064;2023-04-25T16:18:10;12.20;52.70
19090;DHT22;9677;50.656;13.064;2023-04-25T16:20:40;12.10;52.60
19090;DHT22;9677;50.656;13.064;2023-04-25T16:23:08;12.10;52.80
19090;DHT22;9677;50.656;13.064;2023-04-25T16:25:36;12.20;52.80
19090;DHT22;9677;50.656;13.064;2023-04-25T16:28:05;12.20;52.90
19090;DHT22;9677;50.656;13.064;2023-04-25T16:30:33;12.30;52.80
19090;DHT22;9677;50.656;13.064;2023-04-25T16:33:02;12.30;52.60
19090;DHT22;9677;50.656;13.064;2023-04-25T16:35:30;12.30;52.40
19090;DHT22;9677;50.656;13.064;2023-04-25T16:38:00;12.40;52.30
19090;DHT22;9677;50.656;13.064;2023-04-25T16:40:28;12.40;52.10
19090;DHT22;9677;50.656;13.064;2023-04-25T16:42:57;12.40;52.10
19090;DHT22;9677;50.656;13.064;2023-04-25T16:45:25;12.50;52.10
19090;DHT22;9677;50.656;13.064;2023-04-25T16:47:54;12.40;52.00
19090;DHT22;9677;50.656;13.064;2023-04-25T16:50:22;12.50;52.00
19090;DHT22;9677;50.656;13.064;2023-04-25T16:52:50;12.40;52.00
19090;DHT22;9677;50.656;13.064;2023-04-25T16:55:21;12.40;52.00
19090;DHT22;9677;50.656;13.064;2023-04-25T16:57:50;12.50;51.80
19090;DHT22;9677;50.656;13.064;2023-04-25T17:00:18;12.50;51.90
19090;DHT22;9677;50.656;13.064;2023-04-25T17:02:47;12.50;52.00
19090;DHT22;9677;50.656;13.064;2023-04-25T17:05:16;12.50;52.10
19090;DHT22;9677;50.656;13.064;2023-04-25T17:07:44;12.50;52.10
19090;DHT22;9677;50.656;13.064;2023-04-25T17:10:12;13.30;52.50
19090;DHT22;9677;50.656;13.064;2023-04-25T17:12:42;12.60;52.00
19090;DHT22;9677;50.656;13.064;2023-04-25T17:15:12;12.60;51.80
19090;DHT22;9677;50.656;13.064;2023-04-25T17:17:41;12.60;51.70
19090;DHT22;9677;50.656;13.064;2023-04-25T17:20:09;12.70;51.60
19090;DHT22;9677;50.656;13.064;2023-04-25T17:22:39;12.70;51.40
19090;DHT22;9677;50.656;13.064;2023-04-25T17:25:08;12.60;51.10
19090;DHT22;9677;50.656;13.064;2023-04-25T17:27:37;12.70;51.10
19090;DHT22;9677;50.656;13.064;2023-04-25T17:30:08;12.70;51.00
19090;DHT22;9677;50.656;13.064;2023-04-25T17:32:36;12.60;50.90
19090;DHT22;9677;50.656;13.064;2023-04-25T17:35:05;12.60;50.90
19090;DHT22;9677;50.656;13.064;2023-04-25T17:37:34;12.60;50.60
19090;DHT22;9677;50.656;13.064;2023-04-25T17:40:03;12.60;50.40
19090;DHT22;9677;50.656;13.064;2023-04-25T17:42:36;12.50;50.40
19090;DHT22;9677;50.656;13.064;2023-04-25T17:45:07;12.60;50.40
19090;DHT22;9677;50.656;13.064;2023-04-25T17:47:38;12.40;50.40
19090;DHT22;9677;50.656;13.064;2023-04-25T17:50:08;12.40;50.50
19090;DHT22;9677;50.656;13.064;2023-04-25T17:52:38;12.40;50.40
19090;DHT22;9677;50.656;13.064;2023-04-25T17:55:07;12.40;50.50
19090;DHT22;9677;50.656;13.064;2023-04-25T17:57:36;12.40;50.60
19090;DHT22;9677;50.656;13.064;2023-04-25T18:00:07;12.60;50.60
19090;DHT22;9677;50.656;13.064;2023-04-25T18:02:41;12.30;50.40
19090;DHT22;9677;50.656;13.064;2023-04-25T18:05:11;12.30;50.20
19090;DHT22;9677;50.656;13.064;2023-04-25T18:07:39;12.50;50.30
19090;DHT22;9677;50.656;13.064;2023-04-25T18:10:09;12.20;50.30
19090;DHT22;9677;50.656;13.064;2023-04-25T18:12:38;12.20;50.90
19090;DHT22;9677;50.656;13.064;2023-04-25T18:15:09;12.30;50.20
19090;DHT22;9677;50.656;13.064;2023-04-25T18:17:38;12.20;50.00
19090;DHT22;9677;50.656;13.064;2023-04-25T18:20:09;12.10;49.80
19090;DHT22;9677;50.656;13.064;2023-04-25T18:22:41;12.10;49.70
19090;DHT22;9677;50.656;13.064;2023-04-25T18:25:10;12.10;49.70
19090;DHT22;9677;50.656;13.064;2023-04-25T18:27:40;12.00;49.60
19090;DHT22;9677;50.656;13.064;2023-04-25T18:30:11;12.00;49.60
19090;DHT22;9677;50.656;13.064;2023-04-25T18:32:40;12.00;49.60
19090;DHT22;9677;50.656;13.064;2023-04-25T18:35:09;11.90;49.70
19090;DHT22;9677;50.656;13.064;2023-04-25T18:37:38;11.90;49.80
19090;DHT22;9677;50.656;13.064;2023-04-25T18:40:09;11.80;50.00
19090;DHT22;9677;50.656;13.064;2023-04-25T18:42:40;11.80;50.00
19090;DHT22;9677;50.656;13.064;2023-04-25T18:45:10;11.80;50.10
19090;DHT22;9677;50.656;13.064;2023-04-25T18:47:39;11.80;50.00
19090;DHT22;9677;50.656;13.064;2023-04-25T18:50:09;11.90;50.00
19090;DHT22;9677;50.656;13.064;2023-04-25T18:52:38;11.80;49.90
19090;DHT22;9677;50.656;13.064;2023-04-25T18:55:08;12.60;50.00
19090;DHT22;9677;50.656;13.064;2023-04-25T18:57:37;11.80;49.70
19090;DHT22;9677;50.656;13.064;2023-04-25T19:00:06;11.80;49.70
19090;DHT22;9677;50.656;13.064;2023-04-25T19:02:38;11.70;49.50
19090;DHT22;9677;50.656;13.064;2023-04-25T19:05:08;11.70;49.50
19090;DHT22;9677;50.656;13.064;2023-04-25T19:07:37;11.70;49.60
19090;DHT22;9677;50.656;13.064;2023-04-25T19:10:07;11.70;49.50
19090;DHT22;9677;50.656;13.064;2023-04-25T19:12:35;11.70;49.60
19090;DHT22;9677;50.656;13.064;2023-04-25T19:15:05;11.70;49.50
19090;DHT22;9677;50.656;13.064;2023-04-25T19:17:35;11.60;49.40
19090;DHT22;9677;50.656;13.064;2023-04-25T19:20:07;11.60;49.30
19090;DHT22;9677;50.656;13.064;2023-04-25T19:22:35;11.60;49.30
19090;DHT22;9677;50.656;13.064;2023-04-25T19:25:04;11.60;49.40
19090;DHT22;9677;50.656;13.064;2023-04-25T19:27:37;11.50;49.40
19090;DHT22;9677;50.656;13.064;2023-04-25T19:30:06;11.50;49.20
19090;DHT22;9677;50.656;13.064;2023-04-25T19:32:36;11.50;49.30
19090;DHT22;9677;50.656;13.064;2023-04-25T19:35:08;11.50;49.40
19090;DHT22;9677;50.656;13.064;2023-04-25T19:37:38;11.40;49.40
19090;DHT22;9677;50.656;13.064;2023-04-25T19:40:13;11.40;49.50
19090;DHT22;9677;50.656;13.064;2023-04-25T19:42:42;11.40;49.60
19090;DHT22;9677;50.656;13.064;2023-04-25T19:45:11;11.40;49.60
19090;DHT22;9677;50.656;13.064;2023-04-25T19:47:39;11.30;49.60
19090;DHT22;9677;50.656;13.064;2023-04-25T19:50:11;11.30;49.60
19090;DHT22;9677;50.656;13.064;2023-04-25T19:52:40;11.30;49.60
19090;DHT22;9677;50.656;13.064;2023-04-25T19:55:09;11.20;49.50
19090;DHT22;9677;50.656;13.064;2023-04-25T19:57:37;11.20;49.60
19090;DHT22;9677;50.656;13.064;2023-04-25T20:00:10;11.20;49.70
19090;DHT22;9677;50.656;13.064;2023-04-25T20:02:40;11.20;50.40
19090;DHT22;9677;50.656;13.064;2023-04-25T20:05:14;11.10;49.70
19090;DHT22;9677;50.656;13.064;2023-04-25T20:07:44;11.10;49.70
19090;DHT22;9677;50.656;13.064;2023-04-25T20:10:12;11.00;49.70
19090;DHT22;9677;50.656;13.064;2023-04-25T20:12:43;11.10;49.80
19090;DHT22;9677;50.656;13.064;2023-04-25T20:15:11;11.00;49.60
19090;DHT22;9677;50.656;13.064;2023-04-25T20:17:40;10.90;49.50
19090;DHT22;9677;50.656;13.064;2023-04-25T20:20:09;10.90;49.60
19090;DHT22;9677;50.656;13.064;2023-04-25T20:22:39;10.90;49.70
19090;DHT22;9677;50.656;13.064;2023-04-25T20:25:09;10.80;49.70
19090;DHT22;9677;50.656;13.064;2023-04-25T20:27:38;10.80;49.90
19090;DHT22;9677;50.656;13.064;2023-04-25T20:30:08;10.80;49.90
19090;DHT22;9677;50.656;13.064;2023-04-25T20:32:38;10.70;50.00
19090;DHT22;9677;50.656;13.064;2023-04-25T20:35:07;10.70;50.00
19090;DHT22;9677;50.656;13.064;2023-04-25T20:37:37;10.70;50.00
19090;DHT22;9677;50.656;13.064;2023-04-25T20:40:07;10.60;49.90
19090;DHT22;9677;50.656;13.064;2023-04-25T20:42:36;10.60;50.10
19090;DHT22;9677;50.656;13.064;2023-04-25T20:45:06;10.60;50.10